Esther, Alberta

Past 24 Hour Conditions

This table is a summary of hourly weather conditions for the past 24 hours. This summary includes the following parameters: temperature, humidity, dew point, wind speed and direction, air pressure, visibility and/or wind chill and humidex.
Date / Time
(MDT)
Conditions Temp (°F) Humidity (%) Dew Point (°F) Wind (mph) Pressure (inches) Visibility (miles)
02 October 2014
10:00 N/A 35 70 26 WNW 22 gust 32 30.2 N/A
9:00 N/A 33   72 25 WNW 21 gust 27 30.2 N/A
8:00 N/A 33   69 24 WNW 24 gust 30 30.1 N/A
7:00 N/A 33   69 24 WNW 26 gust 38 30.1 N/A
6:00 N/A 33   72 25 WNW 26 gust 35 30.0 N/A
5:00 N/A 33   76 26 WNW 18 gust 24 30.0 N/A
4:00 N/A 34 73 26 WNW 19 gust 26 30.0 N/A
3:00 N/A 36 71 27 W 19 gust 29 30.0 N/A
2:00 N/A 37 81 32 WNW 14 29.9 N/A
1:00 N/A 39 84 34 W 19 29.9 N/A
00:00 N/A 39 87 36 WSW 10 29.9 N/A
01 October 2014
23:00 N/A 40 88 37 S 3 29.9 N/A
22:00 N/A 38 90 36 WNW 9 gust 17 29.9 N/A
21:00 N/A 39 90 37 NW 16 gust 25 29.9 N/A
20:00 N/A 49 59 35 SSE 4 29.8 N/A
19:00 N/A 48 56 33 SE 6 29.8 N/A
18:00 N/A 58 33 29 WSW 2 29.8 N/A
17:00 N/A 57 37 31 SW 9 29.8 N/A
16:00 N/A 58 38 32 WSW 10 29.8 N/A
15:00 N/A 58 30 27 WSW 13 gust 20 29.8 N/A
14:00 N/A 60   30 29 W 18 29.8 N/A
13:00 N/A 58 33 29 WNW 14 gust 23 29.8 N/A
12:00 N/A 57 47 37 W 14 gust 20 29.8 N/A
11:00 N/A 53 57 38 W 14 29.9 N/A
10:00 N/A 50 65 38 WSW 12 29.9 N/A
N/A
Not available
 ↑ 
Highest temperature
 ↓ 
Lowest temperature

If you require additional historical weather information, please visit Climate Data Online.